createdAt,value
2022-08-25T00:02:48.510Z,45.8
2022-08-25T00:07:38.449Z,45.79
2022-08-25T00:12:31.020Z,45.74
2022-08-25T00:17:23.807Z,45.89
2022-08-25T00:22:16.425Z,45.69
2022-08-25T00:27:09.131Z,45.75
2022-08-25T00:32:01.779Z,45.66
2022-08-25T00:36:54.364Z,45.65
2022-08-25T00:41:47.231Z,45.88
2022-08-25T00:46:40.032Z,45.71
2022-08-25T00:51:32.747Z,45.74
2022-08-25T00:56:25.536Z,45.82
2022-08-25T01:01:18.334Z,45.73
2022-08-25T01:06:10.928Z,45.7
2022-08-25T01:11:03.576Z,45.94
2022-08-25T01:15:56.657Z,45.73
2022-08-25T01:20:44.062Z,45.71
2022-08-25T01:25:36.763Z,45.63
2022-08-25T01:30:30.431Z,45.72
2022-08-25T01:35:23.158Z,45.67
2022-08-25T01:40:15.695Z,45.71
2022-08-25T01:45:08.309Z,45.62
2022-08-25T01:50:00.940Z,45.8
2022-08-25T01:54:53.636Z,45.75
2022-08-25T01:59:46.342Z,45.6
2022-08-25T02:04:38.624Z,45.54
2022-08-25T02:09:31.293Z,45.79
2022-08-25T02:14:24.125Z,45.64
2022-08-25T02:19:16.922Z,45.64
2022-08-25T02:24:09.624Z,45.64
2022-08-25T02:29:02.252Z,45.64
2022-08-25T02:33:54.681Z,45.79
2022-08-25T02:38:47.402Z,45.57
2022-08-25T02:43:40.111Z,45.58
2022-08-25T02:48:32.804Z,45.51
2022-08-25T02:53:25.267Z,45.69
2022-08-25T02:58:18.143Z,45.69
2022-08-25T03:03:10.776Z,45.56
2022-08-25T03:08:03.541Z,45.78
2022-08-25T03:12:56.170Z,45.65
2022-08-25T03:17:48.819Z,45.68
2022-08-25T03:27:33.948Z,45.71
2022-08-25T03:37:19.389Z,45.66
2022-08-25T03:47:04.733Z,45.63
2022-08-25T03:51:57.321Z,45.5
2022-08-25T03:56:49.943Z,45.69
2022-08-25T04:01:42.673Z,45.58
2022-08-25T04:06:35.347Z,45.59
2022-08-25T04:11:27.516Z,45.48
2022-08-25T04:16:20.297Z,45.64
2022-08-25T04:21:12.833Z,45.6
2022-08-25T04:26:05.497Z,45.58
2022-08-25T04:30:58.258Z,45.65
2022-08-25T04:35:50.941Z,45.48
2022-08-25T04:40:43.697Z,45.4
2022-08-25T04:45:36.467Z,45.34
2022-08-25T04:50:29.219Z,45.25
2022-08-25T04:55:21.869Z,45.41
2022-08-25T05:00:14.580Z,45.4
2022-08-25T05:05:06.873Z,45.09
2022-08-25T05:09:59.205Z,45.32
2022-08-25T05:14:51.872Z,45.77
2022-08-25T05:19:44.350Z,46.12
2022-08-25T05:24:37.024Z,46.92
2022-08-25T05:29:29.697Z,47.39
2022-08-25T05:34:22.332Z,48.54
2022-08-25T05:39:15.069Z,50.82
2022-08-25T05:44:06.565Z,50.44
2022-08-25T05:48:59.700Z,49.52
2022-08-25T05:53:51.800Z,50.92
2022-08-25T05:58:44.662Z,50.9
2022-08-25T06:03:37.531Z,51.52
2022-08-25T06:08:24.720Z,50.45
2022-08-25T06:13:18.144Z,50.9
2022-08-25T06:18:11.945Z,52.37
2022-08-25T06:23:04.119Z,53.36
2022-08-25T06:27:57.752Z,51.95
2022-08-25T06:32:50.412Z,51.95
2022-08-25T06:37:42.683Z,53.01
2022-08-25T06:42:35.526Z,54.82
2022-08-25T06:47:28.792Z,53.24
2022-08-25T06:52:21.236Z,53.51
2022-08-25T06:57:12.682Z,54.38
2022-08-25T07:02:06.093Z,52.66
2022-08-25T07:06:58.948Z,52.64
2022-08-25T07:11:51.399Z,53.54
2022-08-25T07:16:48.662Z,54.45
2022-08-25T07:21:36.369Z,53.27
2022-08-25T07:26:39.181Z,53.87
2022-08-25T07:31:17.181Z,54.21
2022-08-25T07:36:10.227Z,54.33
2022-08-25T07:41:03.470Z,55.82
2022-08-25T07:45:56.171Z,54.63
2022-08-25T07:50:49.022Z,55.49
2022-08-25T07:55:41.872Z,56.53
2022-08-25T08:00:35.869Z,56.6
2022-08-25T08:05:27.611Z,56.42
2022-08-25T08:15:13.092Z,55.97
2022-08-25T08:20:05.913Z,56.18
2022-08-25T08:24:59.109Z,55.66
2022-08-25T08:29:51.616Z,54.11
2022-08-25T08:34:44.306Z,54.39
2022-08-25T08:39:37.014Z,54.15
2022-08-25T08:44:29.344Z,53.3
2022-08-25T08:49:22.343Z,53.02
2022-08-25T08:54:15.895Z,52.57
2022-08-25T08:59:08.297Z,52.32
2022-08-25T09:04:00.752Z,52.01
2022-08-25T09:08:53.395Z,52.06
2022-08-25T09:13:46.298Z,51.65
2022-08-25T09:18:40.854Z,51.89
2022-08-25T09:23:31.860Z,51.53
2022-08-25T09:28:24.866Z,51.59
2022-08-25T09:33:19.310Z,51.5
2022-08-25T09:38:10.330Z,51.34
2022-08-25T09:43:03.266Z,51.33
2022-08-25T09:47:55.699Z,51.17
2022-08-25T09:52:53.337Z,51.36
2022-08-25T09:57:41.150Z,51.29
2022-08-25T10:02:34.085Z,51.1
2022-08-25T10:07:27.033Z,51.06
2022-08-25T10:12:19.711Z,51.31
2022-08-25T10:17:12.544Z,51.67
2022-08-25T10:22:05.460Z,51.85
2022-08-25T10:31:51.476Z,51.72
2022-08-25T10:36:47.025Z,51.53
2022-08-25T10:41:37.376Z,51.42
2022-08-25T10:51:25.478Z,51.21
2022-08-25T11:01:08.675Z,51.14
2022-08-25T11:06:01.211Z,50.99
2022-08-25T11:10:54.045Z,50.97
2022-08-25T11:16:06.479Z,50.91
2022-08-25T11:20:39.621Z,50.66
2022-08-25T11:25:32.467Z,50.71
2022-08-25T11:30:25.864Z,50.75
2022-08-25T11:35:17.826Z,50.49
2022-08-25T11:40:10.481Z,50.47
2022-08-25T11:45:03.148Z,50.42
2022-08-25T11:49:55.896Z,50.16
2022-08-25T11:54:48.862Z,50.22
2022-08-25T11:59:41.675Z,50.08
2022-08-25T12:04:35.642Z,50.03
2022-08-25T12:09:27.470Z,49.99
2022-08-25T12:14:20.221Z,49.72
2022-08-25T12:19:13.132Z,49.6
2022-08-25T12:24:05.896Z,49.52
2022-08-25T12:28:58.481Z,49.31
2022-08-25T12:33:56.515Z,49.13
2022-08-25T12:38:51.085Z,48.9
2022-08-25T12:43:42.196Z,48.8
2022-08-25T12:48:33.964Z,48.84
2022-08-25T12:53:26.580Z,48.56
2022-08-25T12:58:19.289Z,48.62
2022-08-25T13:03:12.393Z,48.34
2022-08-25T13:08:04.978Z,48.04
2022-08-25T13:12:57.669Z,47.93
2022-08-25T13:17:50.468Z,47.68
2022-08-25T13:22:43.310Z,47.59
2022-08-25T13:27:36.061Z,47.47
2022-08-25T13:32:29.770Z,47.16
2022-08-25T13:37:21.849Z,47.24
2022-08-25T13:42:14.826Z,47.45
2022-08-25T13:47:07.537Z,47.28
2022-08-25T13:52:00.334Z,47.07
2022-08-25T13:56:53.159Z,47.06
2022-08-25T14:01:47.505Z,47.11
2022-08-25T14:06:38.647Z,46.98
2022-08-25T14:11:31.638Z,46.95
2022-08-25T14:16:25.434Z,47.01
2022-08-25T14:21:17.454Z,47.09
2022-08-25T14:26:10.121Z,47.17
2022-08-25T14:31:02.863Z,46.95
2022-08-25T14:35:55.658Z,46.77
2022-08-25T14:40:48.554Z,46.88
2022-08-25T14:45:41.442Z,46.94
2022-08-25T14:50:34.191Z,46.88
2022-08-25T14:55:27.691Z,47.47
2022-08-25T15:00:20.788Z,47.35
2022-08-25T15:05:12.876Z,48.06
2022-08-25T15:10:05.384Z,47.96
2022-08-25T15:14:58.178Z,47.68
2022-08-25T15:19:51.028Z,47.61
2022-08-25T15:24:43.664Z,47.55
2022-08-25T15:29:36.422Z,47.5
2022-08-25T15:34:29.153Z,47.29
2022-08-25T15:39:21.894Z,47.38
2022-08-25T15:44:14.446Z,47.4
2022-08-25T15:49:07.804Z,47.43
2022-08-25T15:53:59.850Z,47.36
2022-08-25T15:58:52.585Z,47.42
2022-08-25T16:03:45.432Z,47.41
2022-08-25T16:08:38.206Z,47.38
2022-08-25T16:13:30.903Z,47.43
2022-08-25T16:18:23.713Z,47.25
2022-08-25T16:28:09.104Z,47.11
2022-08-25T16:37:54.654Z,46.94
2022-08-25T16:42:47.237Z,47
2022-08-25T16:47:39.809Z,47
2022-08-25T16:52:32.659Z,47.27
2022-08-25T16:57:25.227Z,47.42
2022-08-25T17:02:18.595Z,47.18
2022-08-25T17:07:10.696Z,47.34
2022-08-25T17:12:03.478Z,47.84
2022-08-25T17:16:56.332Z,48.11
2022-08-25T17:21:49.938Z,48.33
2022-08-25T17:26:41.680Z,48.16
2022-08-25T17:31:34.334Z,47.95
2022-08-25T17:36:27.542Z,47.81
2022-08-25T17:41:19.826Z,47.62
2022-08-25T17:46:12.473Z,47.88
2022-08-25T17:51:05.138Z,47.99
2022-08-25T17:55:57.923Z,48.2
2022-08-25T18:00:50.849Z,48.25
2022-08-25T18:05:43.550Z,48.43
2022-08-25T18:10:36.353Z,48.24
2022-08-25T18:15:29.210Z,48.3
2022-08-25T18:20:21.814Z,48.28
2022-08-25T18:25:14.586Z,48.16
2022-08-25T18:30:07.251Z,48.17
2022-08-25T18:35:00.093Z,48.25
2022-08-25T18:39:53.099Z,48.2
2022-08-25T18:44:46.737Z,48.21
2022-08-25T18:49:38.685Z,48.02
2022-08-25T18:54:31.501Z,48.29
2022-08-25T18:59:24.344Z,48.29
2022-08-25T19:04:17.045Z,48.18
2022-08-25T19:09:09.852Z,48.26
2022-08-25T19:14:02.593Z,48.4
2022-08-25T19:18:52.009Z,48.32
2022-08-25T19:23:44.880Z,48.35
2022-08-25T19:28:32.555Z,48.22
2022-08-25T19:33:31.480Z,48.22
2022-08-25T19:38:24.588Z,48.27
2022-08-25T19:43:12.401Z,48.19
2022-08-25T19:48:05.266Z,48.2
2022-08-25T19:52:58.097Z,48.2
2022-08-25T19:57:50.867Z,48
2022-08-25T20:02:43.509Z,48.05
2022-08-25T20:07:36.171Z,48.28
2022-08-25T20:12:29.184Z,48.43
2022-08-25T20:17:23.388Z,48.23
2022-08-25T20:22:17.467Z,48.27
2022-08-25T20:27:07.513Z,48.18
2022-08-25T20:32:00.187Z,48.11
2022-08-25T20:36:52.774Z,48.11
2022-08-25T20:41:48.300Z,48.27
2022-08-25T20:46:38.238Z,48.21
2022-08-25T20:51:30.920Z,48.38
2022-08-25T20:56:23.775Z,48.42
2022-08-25T21:01:19.825Z,48.29
2022-08-25T21:06:09.109Z,48.46
2022-08-25T21:11:02.012Z,48.5
2022-08-25T21:15:54.740Z,48.62
2022-08-25T21:20:47.591Z,48.66
2022-08-25T21:25:40.317Z,48.61
2022-08-25T21:30:32.979Z,48.81
2022-08-25T21:35:25.576Z,48.8
2022-08-25T21:40:18.477Z,48.76
2022-08-25T21:45:11.493Z,48.99
2022-08-25T21:50:03.968Z,49.01
2022-08-25T21:54:56.711Z,49.22
2022-08-25T21:59:43.686Z,49.32
2022-08-25T22:04:36.902Z,49.44
2022-08-25T22:14:23.698Z,49.36
2022-08-25T22:24:10.958Z,49.32
2022-08-25T22:29:03.222Z,49.18
2022-08-25T22:33:55.955Z,49.41
2022-08-25T22:38:48.827Z,49.36
2022-08-25T22:43:41.678Z,49.32
2022-08-25T22:48:34.513Z,49.39
2022-08-25T22:53:27.325Z,49.33
2022-08-25T22:58:19.946Z,49.24
2022-08-25T23:03:12.826Z,49.32
2022-08-25T23:08:05.482Z,49.47
2022-08-25T23:12:58.104Z,49.47
2022-08-25T23:17:50.777Z,49.74
2022-08-25T23:22:43.467Z,49.59
2022-08-25T23:27:36.459Z,49.53
2022-08-25T23:32:29.108Z,49.48
2022-08-25T23:37:21.914Z,49.6
2022-08-25T23:42:14.701Z,49.64
2022-08-25T23:47:07.288Z,49.61
2022-08-25T23:52:00.059Z,49.62
2022-08-25T23:56:52.904Z,49.43
